Time;durP1;ratioP1;P1;durP2;ratioP2;P2;SDS_P1;SDS_P2;PMS_P1;PMS_P2;Temp;Humidity;BMP_temperature;BMP_pressure;BME280_temperature;BME280_humidity;BME280_pressure;Samples;Min_cycle;Max_cycle;Signal;HPM_P1;HPM_P2
2022/05/30 00:01:58;;;;;;;3.42;3.13;;;;;;;12.61;66.18;99629.50;5016955;28;20060;-62
2022/05/30 00:04:42;;;;;;;5.45;3.60;;;;;;;12.60;66.21;99633.84;5016839;28;20153;-62
2022/05/30 00:07:27;;;;;;;5.65;3.17;;;;;;;12.60;66.02;99635.56;5016452;28;20096;-63
2022/05/30 00:10:12;;;;;;;4.63;3.20;;;;;;;12.60;66.31;99628.66;5015984;28;20125;-63
2022/05/30 00:12:57;;;;;;;4.93;2.88;;;;;;;12.60;66.20;99628.66;5015277;28;20053;-63
2022/05/30 00:15:41;;;;;;;3.53;3.05;;;;;;;12.60;66.09;99632.97;5001754;28;20045;-63
2022/05/30 00:18:28;;;;;;;;;;;;;;;12.59;65.96;99632.09;5016222;28;20053;-63
2022/05/30 00:21:15;;;;;;;3.22;2.83;;;;;;;12.58;66.21;99632.09;5016052;28;19920;-64
2022/05/30 00:23:59;;;;;;;5.53;3.15;;;;;;;12.58;66.19;99635.56;5001534;28;20157;-63
2022/05/30 00:26:55;;;;;;;4.40;3.03;;;;;;;12.57;65.99;99636.44;5016534;28;20072;-63
2022/05/30 00:29:44;;;;;;;7.22;3.28;;;;;;;12.58;66.25;99624.28;5016180;28;20112;-63
2022/05/30 00:32:35;;;;;;;3.80;2.60;;;;;;;12.58;66.57;99630.38;5001311;28;20064;-62
2022/05/30 00:35:19;;;;;;;5.40;2.67;;;;;;;12.57;66.39;99620.84;5015742;28;20135;-63
2022/05/30 00:38:06;;;;;;;7.30;3.90;;;;;;;12.57;66.22;99615.63;5015784;28;20131;-63
2022/05/30 00:40:51;;;;;;;5.80;3.08;;;;;;;12.57;66.22;99614.75;5016028;28;20133;-62
2022/05/30 00:43:39;;;;;;;4.50;3.13;;;;;;;12.55;66.23;99614.75;5015785;28;20133;-63
2022/05/30 00:46:24;;;;;;;6.07;2.88;;;;;;;12.57;66.58;99617.34;5001272;28;20611;-63
2022/05/30 00:49:13;;;;;;;;;;;;;;;12.55;66.15;99609.56;5001896;28;20111;-63
2022/05/30 00:51:58;;;;;;;6.40;2.80;;;;;;;12.53;66.25;99616.50;5000497;28;20026;-63
2022/05/30 00:54:54;;;;;;;5.07;2.67;;;;;;;12.53;66.62;99606.09;5015989;28;20115;-64
2022/05/30 00:57:44;;;;;;;7.80;3.47;;;;;;;12.54;66.09;99617.34;5000683;28;20045;-63
2022/05/30 01:00:28;;;;;;;7.57;3.25;;;;;;;12.53;66.45;99610.44;5000560;28;20096;-62
2022/05/30 01:06:33;;;;;;;8.57;3.10;;;;;;;12.52;66.46;99614.75;5015753;28;20460;-63
2022/05/30 01:09:31;;;;;;;4.82;3.38;;;;;;;12.53;66.47;99610.44;5000192;28;20078;-63
2022/05/30 01:12:17;;;;;;;5.38;3.75;;;;;;;12.51;66.68;99613.03;5015264;28;20053;-63
2022/05/30 01:15:03;;;;;;;6.18;3.95;;;;;;;12.52;66.25;99619.94;5000309;28;20100;-64
2022/05/30 01:17:52;;;;;;;4.70;3.55;;;;;;;12.52;66.52;99613.91;5015031;28;20041;-63
2022/05/30 01:20:36;;;;;;;6.15;4.18;;;;;;;12.52;66.09;99613.91;5000827;28;20576;-63
2022/05/30 01:23:35;;;;;;;6.13;4.07;;;;;;;12.52;66.48;99613.91;5014730;28;20552;-63
2022/05/30 01:26:50;;;;;;;6.93;4.07;;;;;;;12.52;66.02;99608.69;5014822;28;20053;-63
2022/05/30 01:29:49;;;;;;;9.05;4.40;;;;;;;12.49;66.26;99600.03;5015204;28;20084;-63
2022/05/30 01:32:33;;;;;;;6.78;4.68;;;;;;;12.49;66.13;99600.03;4999706;28;20052;-63
2022/05/30 01:35:23;;;;;;;5.68;4.28;;;;;;;12.49;66.27;99588.75;5014798;28;20128;-62
2022/05/30 01:38:15;;;;;;;4.68;3.70;;;;;;;12.49;66.38;99594.84;4999881;28;20052;-63
2022/05/30 01:41:00;;;;;;;5.82;4.10;;;;;;;12.48;66.38;99584.41;5000145;28;20045;-63
2022/05/30 01:43:45;;;;;;;;;;;;;;;12.47;66.25;99585.28;5014838;28;20052;-62
2022/05/30 01:46:32;;;;;;;5.90;4.03;;;;;;;12.46;66.31;99575.75;4999692;28;19920;-63
2022/05/30 01:49:19;;;;;;;5.75;4.50;;;;;;;12.45;66.37;99572.28;4999300;28;20048;-63
2022/05/30 01:52:12;;;;;;;7.93;4.53;;;;;;;12.46;66.32;99583.53;5014168;28;20108;-62
2022/05/30 01:54:59;;;;;;;7.15;4.53;;;;;;;12.45;66.62;99582.69;4999491;28;20104;-63
2022/05/30 01:57:43;;;;;;;10.27;5.40;;;;;;;12.45;66.55;99576.63;5014762;28;20536;-63
2022/05/30 02:00:29;;;;;;;9.18;5.18;;;;;;;12.44;66.32;99580.97;5014373;28;20520;-62
2022/05/30 02:03:25;;;;;;;6.22;4.25;;;;;;;12.43;66.51;99576.63;5014256;28;20413;-63
2022/05/30 02:06:12;;;;;;;5.55;4.35;;;;;;;12.44;66.72;99575.75;4999249;28;20036;-63
2022/05/30 02:08:56;;;;;;;5.07;4.50;;;;;;;12.43;66.82;99581.81;4999398;28;20057;-63
2022/05/30 02:11:40;;;;;;;7.22;4.28;;;;;;;12.44;66.48;99574.91;5014135;28;20056;-63
2022/05/30 02:14:24;;;;;;;6.60;4.60;;;;;;;12.44;66.71;99578.34;5013730;28;20571;-64
2022/05/30 02:17:14;;;;;;;4.97;4.03;;;;;;;12.43;66.44;99573.16;4999372;28;20057;-62
2022/05/30 02:19:59;;;;;;;8.52;4.25;;;;;;;12.42;66.60;99579.22;4999664;28;20193;-63
2022/05/30 02:22:47;;;;;;;8.27;4.78;;;;;;;12.39;66.52;99577.47;4999447;28;20049;-63
2022/05/30 02:25:36;;;;;;;6.60;4.45;;;;;;;12.39;66.62;99585.28;4999318;28;20053;-63
2022/05/30 02:28:26;;;;;;;8.00;4.85;;;;;;;12.38;66.29;99575.75;4999348;28;20045;-63
2022/05/30 02:31:18;;;;;;;8.38;4.15;;;;;;;12.37;66.41;99574.03;4999642;28;20052;-63
2022/05/30 02:37:19;;;;;;;6.38;4.50;;;;;;;12.35;66.65;99570.56;5013793;28;20057;-63
2022/05/30 02:40:15;;;;;;;9.65;5.00;;;;;;;12.33;66.49;99575.75;4999155;28;20421;-63
2022/05/30 02:42:59;;;;;;;5.75;3.95;;;;;;;12.34;66.62;99579.22;4999249;28;20168;-63
2022/05/30 02:45:46;;;;;;;7.45;5.07;;;;;;;12.33;66.34;99578.34;5013747;28;20060;-63
2022/05/30 02:48:38;;;;;;;4.95;4.25;;;;;;;12.32;66.63;99576.59;4999051;28;20045;-62
2022/05/30 02:51:26;;;;;;;7.93;4.40;;;;;;;12.32;66.54;99575.75;5013781;28;20105;-63
2022/05/30 02:54:16;;;;;;;6.45;4.43;;;;;;;12.31;66.70;99579.22;5013196;28;20104;-63
2022/05/30 02:57:03;;;;;;;9.30;4.80;;;;;;;12.30;66.35;99562.75;4999142;28;20200;-63
2022/05/30 02:59:52;;;;;;;6.03;4.53;;;;;;;12.29;66.64;99570.53;5013452;28;20100;-63
2022/05/30 03:02:42;;;;;;;6.95;4.30;;;;;;;12.29;66.71;99574.03;4998452;28;20053;-63
2022/05/30 03:05:32;;;;;;;7.07;3.78;;;;;;;12.28;66.47;99572.28;5013561;28;20053;-63
2022/05/30 03:08:16;;;;;;;10.30;5.10;;;;;;;12.27;66.48;99573.16;4998919;28;20057;-65
2022/05/30 03:11:00;;;;;;;7.50;4.57;;;;;;;12.27;66.56;99574.88;5013825;28;20398;-63
2022/05/30 03:13:49;;;;;;;5.20;3.97;;;;;;;12.26;66.58;99570.53;5013180;28;20049;-63
2022/05/30 03:16:39;;;;;;;9.20;4.22;;;;;;;12.25;66.32;99572.28;5013546;28;20111;-63
2022/05/30 03:19:26;;;;;;;5.70;4.43;;;;;;;12.24;67.09;99578.34;5013743;28;20045;-63
2022/05/30 03:22:21;;;;;;;6.22;4.35;;;;;;;12.24;66.78;99585.25;4998709;28;20057;-62
2022/05/30 03:25:09;;;;;;;7.00;4.35;;;;;;;12.25;66.46;99586.97;4998927;28;20049;-63
2022/05/30 03:27:55;;;;;;;5.05;4.32;;;;;;;12.23;66.85;99584.41;5013727;28;20477;-63
2022/05/30 03:30:48;;;;;;;7.50;4.15;;;;;;;12.23;66.55;99589.59;4998862;28;20049;-63
2022/05/30 03:33:34;;;;;;;5.07;4.00;;;;;;;12.22;66.74;99589.59;4997969;28;20044;-63
2022/05/30 03:36:27;;;;;;;7.88;5.30;;;;;;;12.21;66.77;99593.06;4998550;28;20499;-63
2022/05/30 03:39:11;;;;;;;6.05;4.35;;;;;;;12.21;66.85;99587.88;5013088;28;20052;-62
2022/05/30 03:41:55;;;;;;;6.15;4.32;;;;;;;12.20;66.66;99586.13;5013111;28;20045;-63
2022/05/30 03:44:43;;;;;;;6.18;4.57;;;;;;;12.18;66.49;99587.00;5013033;28;20061;-63
2022/05/30 03:47:39;;;;;;;6.35;3.97;;;;;;;12.17;66.76;99592.16;5016560;28;20053;-62
2022/05/30 03:50:35;;;;;;;5.90;4.07;;;;;;;12.16;66.62;99603.41;5002006;28;20052;-63
2022/05/30 03:53:24;;;;;;;4.85;3.97;;;;;;;12.16;66.64;99600.81;5016614;28;20048;-62
2022/05/30 03:56:14;;;;;;;5.07;3.67;;;;;;;12.16;67.09;99600.81;5001768;28;20048;-63
2022/05/30 03:59:11;;;;;;;7.13;4.57;;;;;;;12.14;66.87;99600.81;5016187;28;20587;-63
2022/05/30 04:02:04;;;;;;;4.22;3.67;;;;;;;12.14;66.58;99602.56;5016594;28;20053;-62
2022/05/30 04:04:48;;;;;;;5.25;3.80;;;;;;;12.14;66.96;99607.78;5002083;28;20104;-63
2022/05/30 04:07:47;;;;;;;4.78;3.85;;;;;;;12.13;66.97;99608.63;5001474;28;20069;-63
2022/05/30 04:10:36;;;;;;;5.85;4.20;;;;;;;12.11;66.80;99607.75;5016692;28;20128;-63
2022/05/30 04:13:29;;;;;;;6.68;4.38;;;;;;;12.10;66.91;99606.88;5001627;28;20184;-63
2022/05/30 04:16:22;;;;;;;4.82;4.40;;;;;;;12.11;66.73;99612.94;5002042;28;20107;-63
2022/05/30 04:19:20;;;;;;;6.20;4.10;;;;;;;12.10;66.93;99609.47;5001650;28;20049;-62
2022/05/30 04:22:12;;;;;;;5.60;3.97;;;;;;;12.09;66.94;99604.28;5016716;28;20088;-63
2022/05/30 04:25:01;;;;;;;5.25;4.40;;;;;;;12.07;66.89;99606.84;5001362;28;20053;-63
2022/05/30 04:27:51;;;;;;;5.88;4.80;;;;;;;12.07;66.81;99606.84;5015965;28;20049;-63
2022/05/30 04:30:36;;;;;;;6.78;5.15;;;;;;;12.07;66.82;99604.25;5001289;28;20095;-63
2022/05/30 04:33:23;;;;;;;5.72;3.85;;;;;;;12.07;66.70;99611.19;5001028;28;20041;-63
2022/05/30 04:36:18;;;;;;;4.63;4.20;;;;;;;12.05;66.66;99611.22;5015923;28;20049;-63
2022/05/30 04:39:02;;;;;;;6.68;4.40;;;;;;;12.05;67.03;99607.72;5001692;28;20093;-63
2022/05/30 04:41:57;;;;;;;7.20;4.00;;;;;;;12.05;66.72;99611.22;5016295;28;20117;-63
2022/05/30 04:44:44;;;;;;;6.30;3.83;;;;;;;12.03;66.73;99620.72;5015650;28;20123;-63
2022/05/30 04:47:36;;;;;;;6.45;4.18;;;;;;;12.04;67.10;99619.84;5015799;28;20041;-63
2022/05/30 04:50:25;;;;;;;4.90;4.10;;;;;;;12.02;67.09;99622.44;5001387;28;20049;-63
2022/05/30 04:53:09;;;;;;;5.50;4.20;;;;;;;12.02;66.66;99618.97;5015165;28;20049;-63
2022/05/30 04:55:56;;;;;;;4.20;3.58;;;;;;;12.02;67.08;99625.03;5000939;28;20080;-63
2022/05/30 04:58:45;;;;;;;4.72;3.25;;;;;;;12.01;66.66;99620.69;5014954;28;20076;-62
2022/05/30 05:01:30;;;;;;;5.55;3.85;;;;;;;12.00;66.96;99620.69;5000475;28;20041;-62
2022/05/30 05:04:29;;;;;;;4.40;4.00;;;;;;;12.00;66.96;99618.09;5000613;28;20524;-63
2022/05/30 05:07:21;;;;;;;5.60;3.90;;;;;;;11.99;66.73;99624.16;5001005;28;20056;-63
2022/05/30 05:10:35;;;;;;;5.45;3.90;;;;;;;11.99;66.74;99624.16;5000266;28;20456;-63
2022/05/30 05:13:22;;;;;;;7.13;4.40;;;;;;;11.99;67.01;99621.56;5015243;28;20133;-63
2022/05/30 05:16:11;;;;;;;4.40;3.20;;;;;;;11.98;66.77;99628.50;5000213;28;20057;-63
2022/05/30 05:18:57;;;;;;;6.13;4.13;;;;;;;11.98;66.65;99627.59;5000293;28;20053;-62
2022/05/30 05:21:47;;;;;;;4.30;3.33;;;;;;;11.98;66.81;99632.78;5000133;28;20146;-63
2022/05/30 05:24:35;;;;;;;5.95;4.30;;;;;;;11.97;66.83;99636.22;5000599;28;20137;-63
2022/05/30 05:27:19;;;;;;;6.10;3.90;;;;;;;11.97;67.25;99636.22;5000386;28;20045;-63
2022/05/30 05:30:20;;;;;;;6.45;4.18;;;;;;;11.96;66.96;99640.56;5014675;28;20130;-63
2022/05/30 05:33:18;;;;;;;4.57;3.90;;;;;;;11.97;67.22;99646.63;4999640;28;20041;-63
2022/05/30 05:36:14;;;;;;;6.28;4.00;;;;;;;11.95;67.07;99637.94;5000065;28;20115;-63
2022/05/30 05:39:12;;;;;;;7.70;3.72;;;;;;;11.96;67.05;99642.28;4999544;28;20111;-63
2022/05/30 05:42:12;;;;;;;7.63;4.35;;;;;;;11.95;66.80;99640.56;4998942;28;20512;-63
2022/05/30 05:45:07;;;;;;;8.25;3.60;;;;;;;11.95;67.45;99644.03;5014672;28;20095;-63
2022/05/30 05:47:52;;;;;;;5.97;3.95;;;;;;;11.95;66.91;99649.22;5014432;28;20071;-63
2022/05/30 05:50:43;;;;;;;7.45;3.75;;;;;;;11.94;67.17;99651.78;5014498;28;20115;-62
2022/05/30 05:53:39;;;;;;;5.35;3.63;;;;;;;11.94;67.28;99662.19;4999587;28;20045;-62
2022/05/30 05:56:38;;;;;;;4.90;4.00;;;;;;;11.95;67.26;99666.53;4999550;28;20057;-64
2022/05/30 05:59:36;;;;;;;7.22;4.15;;;;;;;11.95;67.15;99662.22;4999526;28;20068;-63
2022/05/30 06:02:32;;;;;;;5.18;3.65;;;;;;;11.95;67.23;99662.22;4999421;28;20457;-62
2022/05/30 06:05:30;;;;;;;10.88;3.88;;;;;;;11.96;67.27;99660.47;4999247;28;20052;-63
2022/05/30 06:08:19;;;;;;;6.20;3.75;;;;;;;11.96;67.30;99668.25;5013818;28;20188;-63
2022/05/30 06:11:08;;;;;;;6.22;3.90;;;;;;;11.96;66.79;99674.34;4999261;28;20180;-63
2022/05/30 06:13:52;;;;;;;3.95;3.40;;;;;;;11.95;67.26;99663.91;4999258;28;20133;-62
2022/05/30 06:16:50;;;;;;;8.05;4.07;;;;;;;11.96;67.20;99673.44;4999574;28;20077;-63
2022/05/30 06:19:46;;;;;;;5.78;3.65;;;;;;;11.95;67.07;99672.59;4999307;28;20644;-62
2022/05/30 06:22:41;;;;;;;6.65;4.00;;;;;;;11.96;67.35;99679.53;5014120;28;20045;-62
2022/05/30 06:25:36;;;;;;;6.88;3.88;;;;;;;11.96;67.35;99671.75;5014039;28;20100;-63
2022/05/30 06:28:34;;;;;;;4.60;3.45;;;;;;;11.95;67.45;99663.91;5014182;28;20095;-63
2022/05/30 06:31:33;;;;;;;5.30;3.67;;;;;;;11.94;67.17;99667.38;4998963;28;20567;-63
2022/05/30 06:34:31;;;;;;;9.27;4.45;;;;;;;11.95;67.17;99671.72;5014073;28;20053;-62
2022/05/30 06:37:18;;;;;;;5.93;4.55;;;;;;;11.95;67.09;99663.91;4998969;28;20068;-63
2022/05/30 06:40:03;;;;;;;9.50;5.07;;;;;;;11.95;67.57;99666.53;5014135;28;20111;-62
2022/05/30 06:42:46;;;;;;;6.70;4.47;;;;;;;11.94;67.07;99668.25;4998960;28;20053;-63
2022/05/30 06:45:32;;;;;;;8.85;4.95;;;;;;;11.93;67.37;99676.03;5013597;28;20044;-62
2022/05/30 06:48:33;;;;;;;10.98;5.72;;;;;;;11.92;67.33;99680.38;4999198;28;20212;-63
2022/05/30 06:51:34;;;;;;;6.32;4.65;;;;;;;11.93;67.26;99681.22;5013603;28;20049;-62
2022/05/30 06:54:35;;;;;;;8.73;4.68;;;;;;;11.92;67.42;99685.56;4998690;28;20084;-63
2022/05/30 07:00:46;;;;;;;10.68;6.10;;;;;;;11.92;67.06;99693.34;5013571;28;20096;-63
2022/05/30 07:03:30;;;;;;;8.95;5.65;;;;;;;11.92;67.53;99684.69;5013893;28;20093;-63
2022/05/30 07:06:18;;;;;;;7.72;4.93;;;;;;;11.92;67.59;99684.69;4998915;28;20048;-63
2022/05/30 07:09:04;;;;;;;7.80;5.78;;;;;;;11.90;67.10;99686.44;4999060;28;20049;-63
2022/05/30 07:12:08;;;;;;;8.60;5.70;;;;;;;11.91;67.36;99685.56;4998932;28;20057;-63
2022/05/30 07:15:12;;;;;;;9.75;5.72;;;;;;;11.91;67.39;99690.75;4999025;28;20061;-63
2022/05/30 07:18:13;;;;;;;9.90;5.40;;;;;;;11.88;67.39;99683.81;5013584;28;20071;-62
2022/05/30 07:21:03;;;;;;;11.25;6.40;;;;;;;11.88;67.47;99687.28;5014942;28;20044;-63
2022/05/30 07:24:00;;;;;;;8.77;6.55;;;;;;;11.89;67.58;99690.72;5017361;28;20531;-62
2022/05/30 07:26:53;;;;;;;9.77;5.80;;;;;;;11.91;67.35;99688.16;5002315;28;20053;-63
2022/05/30 07:29:37;;;;;;;8.30;5.72;;;;;;;11.90;67.68;99683.81;5017153;28;20516;-63
2022/05/30 07:32:22;;;;;;;9.68;6.55;;;;;;;11.91;67.44;99688.16;5017279;28;20126;-63
2022/05/30 07:35:06;;;;;;;9.75;6.15;;;;;;;11.91;67.48;99688.16;5002640;28;20512;-62
2022/05/30 07:37:59;;;;;;;10.18;6.60;;;;;;;11.91;67.64;99685.56;5017255;28;20053;-63
2022/05/30 07:40:51;;;;;;;9.20;6.38;;;;;;;11.89;67.59;99688.13;5001903;28;20521;-62
2022/05/30 07:43:44;;;;;;;9.13;5.97;;;;;;;11.89;67.42;99685.53;5002209;28;20052;-62
2022/05/30 07:46:43;;;;;;;7.15;5.75;;;;;;;11.88;67.67;99679.50;5002511;28;20135;-62
2022/05/30 07:49:30;;;;;;;8.40;5.32;;;;;;;11.92;67.56;99684.69;5017187;28;20172;-62
2022/05/30 07:52:19;;;;;;;9.57;6.47;;;;;;;11.92;67.46;99682.06;5002093;28;20065;-63
2022/05/30 07:55:09;;;;;;;11.50;6.10;;;;;;;11.91;67.41;99682.97;5001755;28;20193;-63
2022/05/30 07:57:55;;;;;;;11.57;6.45;;;;;;;11.93;67.71;99692.50;5002225;28;20053;-62
2022/05/30 08:00:39;;;;;;;9.15;6.72;;;;;;;11.91;67.42;99688.16;5001972;28;20053;-62
2022/05/30 08:03:25;;;;;;;14.10;7.15;;;;;;;11.90;67.26;99683.81;5016034;28;20064;-64
2022/05/30 08:06:12;;;;;;;11.95;6.22;;;;;;;11.88;67.36;99679.50;5016567;28;20053;-62
2022/05/30 08:09:02;;;;;;;7.80;6.50;;;;;;;11.89;67.67;99688.13;5001925;28;20635;-63
2022/05/30 08:11:57;;;;;;;11.38;6.82;;;;;;;11.88;67.41;99689.00;5001888;28;20044;-62
2022/05/30 08:14:53;;;;;;;14.13;7.40;;;;;;;11.87;67.69;99687.25;5001403;28;20096;-63
2022/05/30 08:17:53;;;;;;;8.95;6.68;;;;;;;11.87;67.59;99688.13;5016366;28;20104;-63
2022/05/30 08:20:51;;;;;;;8.90;6.35;;;;;;;11.88;67.64;99694.19;5001279;28;20556;-62
2022/05/30 08:23:41;;;;;;;10.38;6.70;;;;;;;11.87;67.67;99688.13;5001735;28;20049;-63
2022/05/30 08:26:25;;;;;;;11.65;6.05;;;;;;;11.86;67.59;99688.13;5001586;28;20053;-64
2022/05/30 08:29:09;;;;;;;8.18;6.05;;;;;;;11.87;67.24;99692.44;5016326;28;20172;-62
2022/05/30 08:31:53;;;;;;;10.80;5.35;;;;;;;11.87;67.51;99693.34;5000676;28;20068;-62
2022/05/30 08:34:39;;;;;;;10.93;5.68;;;;;;;11.87;67.36;99697.66;5015711;28;20049;-62
2022/05/30 08:37:37;;;;;;;9.57;5.68;;;;;;;11.88;67.37;99686.41;5001340;28;20056;-62
2022/05/30 08:44:03;;;;;;;10.48;5.85;;;;;;;11.87;67.54;99687.25;4990250;28;20057;-63
2022/05/30 08:47:42;;;;;;;8.30;6.32;;;;;;;11.85;67.55;99689.84;5000961;28;20477;-63
2022/05/30 08:50:43;;;;;;;8.85;5.47;;;;;;;11.88;67.58;99696.78;4922899;29;20058;-63
2022/05/30 08:54:02;;;;;;;9.05;6.13;;;;;;;11.88;67.19;99686.41;4922406;29;20046;-64
2022/05/30 08:57:06;;;;;;;8.75;5.28;;;;;;;11.88;67.75;99694.19;4959049;28;20148;-63
2022/05/30 09:00:25;;;;;;;9.23;5.05;;;;;;;11.88;67.42;99695.06;5015226;28;20044;-63
2022/05/30 09:03:38;;;;;;;9.55;4.90;;;;;;;11.89;67.67;99693.34;5000547;28;20061;-62
2022/05/30 09:06:38;;;;;;;9.20;4.93;;;;;;;11.89;67.60;99685.53;5000412;28;20049;-63
2022/05/30 09:10:02;;;;;;;8.70;5.00;;;;;;;11.91;67.63;99688.16;5015552;28;20057;-64
2022/05/30 09:13:00;;;;;;;11.32;4.75;;;;;;;11.92;67.47;99695.94;5000609;28;20571;-63
2022/05/30 09:16:11;;;;;;;9.57;5.25;;;;;;;11.92;67.34;99693.34;5015444;28;20135;-63
2022/05/30 09:19:10;;;;;;;7.50;4.53;;;;;;;11.93;67.52;99692.50;5015426;28;20061;-63
2022/05/30 09:22:11;;;;;;;8.05;5.30;;;;;;;11.94;67.34;99698.53;5000698;28;20052;-62
2022/05/30 09:28:18;;;;;;;9.50;5.65;;;;;;;11.87;67.33;99695.94;5015029;28;20128;-62
2022/05/30 09:31:05;;;;;;;7.88;4.18;;;;;;;11.90;67.16;99683.81;5000012;28;20049;-63
2022/05/30 09:33:56;;;;;;;11.52;5.18;;;;;;;11.91;67.56;99695.97;5000402;28;20053;-63
2022/05/30 09:36:49;;;;;;;8.60;4.63;;;;;;;11.91;67.54;99696.81;5000246;28;20099;-62
2022/05/30 09:39:54;;;;;;;14.15;5.35;;;;;;;11.91;66.83;99699.41;4999823;28;20096;-63
2022/05/30 09:43:00;;;;;;;8.43;4.28;;;;;;;11.92;67.33;99690.75;5014779;28;20524;-64
2022/05/30 09:46:01;;;;;;;9.32;4.47;;;;;;;11.91;67.03;99694.22;4999831;28;20055;-62
2022/05/30 09:49:08;;;;;;;10.07;4.35;;;;;;;11.91;67.15;99694.22;5000188;28;20520;-64
2022/05/30 09:52:21;;;;;;;7.88;4.82;;;;;;;11.94;67.44;99690.75;4999492;28;20544;-63
2022/05/30 09:55:34;;;;;;;8.32;4.68;;;;;;;11.96;67.20;99689.03;5014282;28;20061;-63
2022/05/30 09:58:58;;;;;;;9.20;4.90;;;;;;;11.95;67.58;99677.78;5000054;28;20052;-63
2022/05/30 10:01:54;;;;;;;7.70;4.05;;;;;;;11.97;67.35;99688.19;4999396;28;20060;-63
2022/05/30 10:05:06;;;;;;;6.22;4.30;;;;;;;11.97;67.68;99686.47;4999493;28;20091;-64
2022/05/30 10:08:00;;;;;;;9.02;3.65;;;;;;;11.97;66.91;99685.56;4998737;28;20125;-63
2022/05/30 10:11:01;;;;;;;10.35;4.82;;;;;;;11.98;67.25;99684.72;4999296;28;20127;-63
2022/05/30 10:13:59;;;;;;;6.85;4.15;;;;;;;12.00;67.31;99690.81;5013934;28;20053;-62
2022/05/30 10:17:01;;;;;;;7.65;4.30;;;;;;;12.03;67.51;99685.66;4999601;28;20096;-62
2022/05/30 10:19:51;;;;;;;7.28;3.63;;;;;;;12.03;66.88;99696.88;4998927;28;20504;-63
2022/05/30 10:29:49;;;;;;;6.80;4.10;;;;;;;12.01;67.01;99692.56;5014303;28;20052;-63
2022/05/30 10:33:28;;;;;;;8.27;3.75;;;;;;;12.01;67.23;99701.22;4999179;28;20096;-63
2022/05/30 10:36:37;;;;;;;10.57;3.95;;;;;;;12.02;67.11;99705.53;4939763;29;20094;-63
2022/05/30 10:39:45;;;;;;;6.43;3.42;;;;;;;12.03;67.09;99709.03;4939952;29;20526;-62
2022/05/30 10:42:44;;;;;;;8.05;4.10;;;;;;;12.03;67.33;99712.47;4999300;28;20123;-63
2022/05/30 10:45:55;;;;;;;7.72;3.72;;;;;;;12.04;67.03;99715.97;5013827;28;20405;-63
2022/05/30 10:49:08;;;;;;;10.60;3.80;;;;;;;12.05;67.45;99712.50;4998764;28;20104;-63
2022/05/30 10:52:47;;;;;;;6.82;3.40;;;;;;;12.06;66.86;99719.44;4998899;28;20053;-64
2022/05/30 10:55:52;;;;;;;7.80;4.63;;;;;;;12.09;67.04;99709.03;4974517;28;20056;-63
2022/05/30 10:58:46;;;;;;;7.28;3.63;;;;;;;12.09;67.22;99711.63;4999005;28;20092;-63
2022/05/30 11:01:51;;;;;;;5.55;3.55;;;;;;;12.09;66.91;99705.59;5013245;28;20556;-63
2022/05/30 11:04:47;;;;;;;6.88;3.67;;;;;;;12.10;66.85;99705.56;5013183;28;20532;-62
2022/05/30 11:08:03;;;;;;;7.40;3.47;;;;;;;12.10;66.70;99712.50;4998541;28;20045;-62
2022/05/30 11:11:09;;;;;;;6.68;3.45;;;;;;;12.10;67.16;99710.78;5013543;28;20068;-64
2022/05/30 11:14:16;;;;;;;7.22;2.90;;;;;;;12.09;66.77;99703.84;5012983;28;20056;-63
2022/05/30 11:17:28;;;;;;;6.75;3.35;;;;;;;12.13;66.59;99710.78;4998683;28;20476;-63
2022/05/30 11:20:34;;;;;;;5.07;3.03;;;;;;;12.13;66.67;99707.34;5013495;28;20042;-63
2022/05/30 11:23:26;;;;;;;5.65;3.28;;;;;;;12.12;66.71;99714.25;4998240;28;20528;-63
2022/05/30 11:26:47;;;;;;;6.13;2.88;;;;;;;12.12;66.88;99708.19;4998932;28;20045;-63
2022/05/30 11:29:52;;;;;;;6.38;2.75;;;;;;;12.12;66.99;99710.81;4998370;28;20125;-63
2022/05/30 11:33:14;;;;;;;4.55;3.00;;;;;;;12.10;66.33;99705.56;5012807;28;20061;-63
2022/05/30 11:36:25;;;;;;;5.40;3.63;;;;;;;12.09;66.68;99709.03;4997643;28;20524;-63
2022/05/30 11:39:51;;;;;;;5.57;3.08;;;;;;;12.08;66.64;99709.91;5013141;28;20087;-63
2022/05/30 11:43:09;;;;;;;4.40;2.40;;;;;;;12.09;66.69;99711.63;4966306;28;20092;-63
2022/05/30 11:46:54;;;;;;;4.30;2.78;;;;;;;12.10;66.68;99707.31;5013229;28;20049;-63
2022/05/30 11:50:23;;;;;;;9.95;3.50;;;;;;;12.08;66.50;99712.50;4958044;28;20157;-63
2022/05/30 11:53:41;;;;;;;5.20;2.63;;;;;;;12.08;66.46;99709.91;5013247;28;20049;-63
2022/05/30 11:56:36;;;;;;;4.95;2.78;;;;;;;12.09;66.45;99716.81;4998450;28;20049;-63
2022/05/30 11:59:45;;;;;;;4.72;2.80;;;;;;;12.11;66.61;99711.66;4998606;28;20120;-63
2022/05/30 12:03:17;;;;;;;3.22;2.38;;;;;;;12.11;66.54;99715.09;4998183;28;20084;-63
2022/05/30 12:06:17;;;;;;;5.15;2.72;;;;;;;12.11;66.22;99714.25;4991550;28;20133;-63
2022/05/30 12:09:40;;;;;;;4.40;2.70;;;;;;;12.10;66.28;99705.56;5016113;28;20052;-63
2022/05/30 12:12:50;;;;;;;3.20;2.60;;;;;;;12.09;66.48;99711.63;5015988;28;20420;-63
2022/05/30 12:15:56;;;;;;;4.50;2.55;;;;;;;12.09;66.25;99701.25;5016362;28;20053;-62
2022/05/30 12:26:06;;;;;;;6.75;2.85;;;;;;;12.09;66.31;99703.84;5016505;28;20116;-63
2022/05/30 12:29:02;;;;;;;3.47;2.55;;;;;;;12.09;66.54;99701.25;5001238;28;20049;-63
2022/05/30 12:32:32;;;;;;;7.93;2.92;;;;;;;12.10;66.26;99696.94;5001512;28;20508;-62
2022/05/30 12:35:21;;;;;;;6.50;3.35;;;;;;;12.10;66.59;99700.38;5016333;28;20044;-63
2022/05/30 12:38:11;;;;;;;3.30;2.40;;;;;;;12.11;66.66;99701.28;5001511;28;20096;-62
2022/05/30 12:41:30;;;;;;;6.10;3.17;;;;;;;12.11;66.13;99702.13;5001609;28;20045;-63
2022/05/30 12:44:55;;;;;;;6.63;2.72;;;;;;;12.12;66.38;99688.28;5001314;28;20056;-63
2022/05/30 12:48:00;;;;;;;6.18;2.80;;;;;;;12.11;66.26;99696.94;5014663;28;20176;-63
2022/05/30 12:51:18;;;;;;;3.50;2.60;;;;;;;12.12;66.51;99690.88;5015776;28;20578;-63
2022/05/30 12:54:29;;;;;;;5.90;2.70;;;;;;;12.14;66.42;99686.56;5000983;28;20405;-63
2022/05/30 12:57:34;;;;;;;4.45;2.88;;;;;;;12.15;66.44;99680.50;5001313;28;20072;-63
2022/05/30 13:00:21;;;;;;;7.20;3.50;;;;;;;12.16;66.25;99690.03;5000587;28;20064;-64
2022/05/30 13:03:30;;;;;;;4.60;2.33;;;;;;;12.16;66.46;99671.84;5000395;28;20132;-63
2022/05/30 13:06:19;;;;;;;3.42;2.70;;;;;;;12.18;66.11;99684.81;5015139;28;20111;-63
2022/05/30 13:09:13;;;;;;;5.40;2.92;;;;;;;12.19;66.29;99683.97;5001159;28;20111;-63
2022/05/30 13:12:18;;;;;;;4.00;2.80;;;;;;;12.19;66.41;99678.78;5000633;28;20056;-63
2022/05/30 13:15:19;;;;;;;6.28;2.80;;;;;;;12.22;66.01;99671.00;5012343;28;20045;-64
2022/05/30 13:18:17;;;;;;;3.00;2.38;;;;;;;12.19;65.81;99676.16;5000107;28;20044;-63
2022/05/30 13:21:13;;;;;;;2.80;2.20;;;;;;;12.18;66.20;99683.13;5015452;28;20125;-63
2022/05/30 13:24:22;;;;;;;5.55;2.75;;;;;;;12.23;66.26;99684.84;5000493;28;20053;-63
2022/05/30 13:27:24;;;;;;;6.68;2.75;;;;;;;12.28;65.84;99683.13;5000186;28;20563;-62
2022/05/30 13:30:31;;;;;;;11.30;3.03;;;;;;;12.29;65.42;99679.66;5000388;28;20175;-62
2022/05/30 13:33:37;;;;;;;9.68;3.08;;;;;;;12.31;66.08;99683.16;4999975;28;20124;-63
2022/05/30 13:36:31;;;;;;;10.80;3.10;;;;;;;12.31;66.09;99680.56;5000217;28;20068;-62
2022/05/30 13:39:15;;;;;;;13.40;3.45;;;;;;;12.30;65.97;99687.47;5015220;28;20053;-62
2022/05/30 13:42:04;;;;;;;10.43;3.28;;;;;;;12.31;65.50;99680.56;5014947;28;20092;-63
2022/05/30 13:44:49;;;;;;;6.60;3.15;;;;;;;12.32;65.85;99679.69;4999725;28;20048;-63
2022/05/30 13:47:33;;;;;;;;;;;;;;;12.31;65.50;99680.56;5015529;28;20052;-63
2022/05/30 13:50:18;;;;;;;3.28;2.38;;;;;;;12.30;66.18;99677.06;5014508;28;19920;-63
2022/05/30 13:53:03;;;;;;;7.25;3.08;;;;;;;12.32;65.65;99674.50;4999689;28;20133;-63
2022/05/30 13:55:59;;;;;;;6.05;3.13;;;;;;;12.30;65.78;99676.22;5014594;28;20053;-63
2022/05/30 13:58:46;;;;;;;7.50;2.35;;;;;;;12.29;65.95;99666.69;5014151;28;20125;-62
2022/05/30 14:01:37;;;;;;;7.82;2.80;;;;;;;12.31;65.68;99670.16;4999696;28;20064;-62
2022/05/30 14:04:50;;;;;;;6.18;2.55;;;;;;;12.32;65.47;99664.94;4999732;28;20413;-63
2022/05/30 14:08:00;;;;;;;5.95;2.80;;;;;;;12.33;65.06;99668.44;4999587;28;20122;-62
2022/05/30 14:11:02;;;;;;;3.65;2.17;;;;;;;12.33;65.51;99665.84;4999538;28;20057;-63
2022/05/30 14:14:04;;;;;;;3.75;2.33;;;;;;;12.34;65.42;99657.19;4998925;28;20052;-63
2022/05/30 14:17:09;;;;;;;3.35;2.42;;;;;;;12.33;65.39;99664.09;5014135;28;20088;-63
2022/05/30 14:20:34;;;;;;;6.82;2.75;;;;;;;12.32;65.32;99658.91;4999107;28;20053;-63